sensor_id;sensor_type;location;lat;lon;timestamp;P1;durP1;ratioP1;P2;durP2;ratioP2
23990;SDS011;12205;50.600;4.608;2022-12-18T00:01:14;48.42;;;10.98;;
23990;SDS011;12205;50.600;4.608;2022-12-18T00:03:45;40.78;;;9.52;;
23990;SDS011;12205;50.600;4.608;2022-12-18T00:06:13;39.20;;;9.75;;
23990;SDS011;12205;50.600;4.608;2022-12-18T00:08:41;38.95;;;9.80;;
23990;SDS011;12205;50.600;4.608;2022-12-18T00:11:13;35.03;;;8.60;;
23990;SDS011;12205;50.600;4.608;2022-12-18T00:13:44;34.53;;;8.50;;
23990;SDS011;12205;50.600;4.608;2022-12-18T00:16:12;32.35;;;8.32;;
23990;SDS011;12205;50.600;4.608;2022-12-18T00:18:43;34.58;;;9.52;;
23990;SDS011;12205;50.600;4.608;2022-12-18T00:21:11;44.97;;;12.25;;
23990;SDS011;12205;50.600;4.608;2022-12-18T00:23:39;33.92;;;9.02;;
23990;SDS011;12205;50.600;4.608;2022-12-18T00:26:12;27.83;;;7.80;;
23990;SDS011;12205;50.600;4.608;2022-12-18T00:28:43;26.98;;;7.32;;
23990;SDS011;12205;50.600;4.608;2022-12-18T00:31:12;30.33;;;7.25;;
23990;SDS011;12205;50.600;4.608;2022-12-18T00:33:40;30.30;;;7.57;;
23990;SDS011;12205;50.600;4.608;2022-12-18T00:36:09;31.17;;;8.95;;
23990;SDS011;12205;50.600;4.608;2022-12-18T00:38:38;34.22;;;8.50;;
23990;SDS011;12205;50.600;4.608;2022-12-18T00:41:07;30.02;;;8.88;;
23990;SDS011;12205;50.600;4.608;2022-12-18T00:43:38;40.30;;;10.07;;
23990;SDS011;12205;50.600;4.608;2022-12-18T00:46:05;36.20;;;9.65;;
23990;SDS011;12205;50.600;4.608;2022-12-18T00:48:32;42.38;;;10.70;;
23990;SDS011;12205;50.600;4.608;2022-12-18T00:50:59;45.75;;;10.95;;
23990;SDS011;12205;50.600;4.608;2022-12-18T00:53:26;39.28;;;11.45;;
23990;SDS011;12205;50.600;4.608;2022-12-18T00:55:55;39.85;;;10.88;;
23990;SDS011;12205;50.600;4.608;2022-12-18T00:58:22;42.95;;;10.23;;
23990;SDS011;12205;50.600;4.608;2022-12-18T01:00:50;50.90;;;12.23;;
23990;SDS011;12205;50.600;4.608;2022-12-18T01:03:18;38.03;;;9.68;;
23990;SDS011;12205;50.600;4.608;2022-12-18T01:05:45;35.28;;;9.00;;
23990;SDS011;12205;50.600;4.608;2022-12-18T01:08:12;40.63;;;9.57;;
23990;SDS011;12205;50.600;4.608;2022-12-18T01:10:42;48.72;;;10.82;;
23990;SDS011;12205;50.600;4.608;2022-12-18T01:13:09;37.42;;;10.07;;
23990;SDS011;12205;50.600;4.608;2022-12-18T01:15:36;42.03;;;11.90;;
23990;SDS011;12205;50.600;4.608;2022-12-18T01:18:05;31.42;;;8.80;;
23990;SDS011;12205;50.600;4.608;2022-12-18T01:20:32;24.10;;;7.13;;
23990;SDS011;12205;50.600;4.608;2022-12-18T01:23:00;27.13;;;6.90;;
23990;SDS011;12205;50.600;4.608;2022-12-18T01:25:27;41.28;;;8.35;;
23990;SDS011;12205;50.600;4.608;2022-12-18T01:27:54;35.75;;;7.68;;
23990;SDS011;12205;50.600;4.608;2022-12-18T01:30:21;32.03;;;7.30;;
23990;SDS011;12205;50.600;4.608;2022-12-18T01:32:48;32.45;;;7.82;;
23990;SDS011;12205;50.600;4.608;2022-12-18T01:35:17;28.63;;;7.60;;
23990;SDS011;12205;50.600;4.608;2022-12-18T01:37:45;34.70;;;10.23;;
23990;SDS011;12205;50.600;4.608;2022-12-18T01:40:12;30.00;;;7.07;;
23990;SDS011;12205;50.600;4.608;2022-12-18T01:42:39;31.27;;;6.97;;
23990;SDS011;12205;50.600;4.608;2022-12-18T01:45:09;27.63;;;6.78;;
23990;SDS011;12205;50.600;4.608;2022-12-18T01:47:53;24.02;;;5.65;;
23990;SDS011;12205;50.600;4.608;2022-12-18T01:50:27;26.57;;;6.33;;
23990;SDS011;12205;50.600;4.608;2022-12-18T01:53:00;37.88;;;7.63;;
23990;SDS011;12205;50.600;4.608;2022-12-18T01:55:35;27.17;;;6.75;;
23990;SDS011;12205;50.600;4.608;2022-12-18T01:58:09;31.05;;;6.57;;
23990;SDS011;12205;50.600;4.608;2022-12-18T02:00:36;27.25;;;7.00;;
23990;SDS011;12205;50.600;4.608;2022-12-18T02:03:03;30.88;;;6.88;;
23990;SDS011;12205;50.600;4.608;2022-12-18T02:05:39;32.65;;;7.00;;
23990;SDS011;12205;50.600;4.608;2022-12-18T02:08:15;26.65;;;7.90;;
23990;SDS011;12205;50.600;4.608;2022-12-18T02:10:50;33.03;;;9.70;;
23990;SDS011;12205;50.600;4.608;2022-12-18T02:13:27;33.95;;;8.45;;
23990;SDS011;12205;50.600;4.608;2022-12-18T02:16:08;41.60;;;10.98;;
23990;SDS011;12205;50.600;4.608;2022-12-18T02:18:45;31.45;;;7.63;;
23990;SDS011;12205;50.600;4.608;2022-12-18T02:21:24;31.65;;;7.90;;
23990;SDS011;12205;50.600;4.608;2022-12-18T02:24:09;31.90;;;6.32;;
23990;SDS011;12205;50.600;4.608;2022-12-18T02:26:53;31.38;;;7.45;;
23990;SDS011;12205;50.600;4.608;2022-12-18T02:29:29;21.85;;;6.22;;
23990;SDS011;12205;50.600;4.608;2022-12-18T02:32:04;33.60;;;6.47;;
23990;SDS011;12205;50.600;4.608;2022-12-18T02:34:38;19.75;;;5.63;;
23990;SDS011;12205;50.600;4.608;2022-12-18T02:37:12;25.15;;;6.10;;
23990;SDS011;12205;50.600;4.608;2022-12-18T02:39:48;23.58;;;6.00;;
23990;SDS011;12205;50.600;4.608;2022-12-18T02:42:21;38.72;;;9.52;;
23990;SDS011;12205;50.600;4.608;2022-12-18T02:44:51;50.60;;;11.15;;
23990;SDS011;12205;50.600;4.608;2022-12-18T02:47:22;50.03;;;12.05;;
23990;SDS011;12205;50.600;4.608;2022-12-18T02:49:57;56.38;;;12.45;;
23990;SDS011;12205;50.600;4.608;2022-12-18T02:52:39;54.95;;;11.95;;
23990;SDS011;12205;50.600;4.608;2022-12-18T02:55:21;33.25;;;7.85;;
23990;SDS011;12205;50.600;4.608;2022-12-18T02:58:09;28.13;;;7.47;;
23990;SDS011;12205;50.600;4.608;2022-12-18T03:00:48;30.00;;;7.15;;
23990;SDS011;12205;50.600;4.608;2022-12-18T03:03:29;27.40;;;7.32;;
23990;SDS011;12205;50.600;4.608;2022-12-18T03:06:05;31.20;;;7.47;;
23990;SDS011;12205;50.600;4.608;2022-12-18T03:08:42;22.20;;;6.00;;
23990;SDS011;12205;50.600;4.608;2022-12-18T03:11:15;37.35;;;9.85;;
23990;SDS011;12205;50.600;4.608;2022-12-18T03:14:07;32.63;;;7.22;;
23990;SDS011;12205;50.600;4.608;2022-12-18T03:16:38;33.85;;;9.48;;
23990;SDS011;12205;50.600;4.608;2022-12-18T03:19:10;23.08;;;5.50;;
23990;SDS011;12205;50.600;4.608;2022-12-18T03:21:43;19.75;;;6.20;;
23990;SDS011;12205;50.600;4.608;2022-12-18T03:24:17;26.23;;;6.40;;
23990;SDS011;12205;50.600;4.608;2022-12-18T03:26:47;24.98;;;6.60;;
23990;SDS011;12205;50.600;4.608;2022-12-18T03:29:26;23.33;;;5.88;;
23990;SDS011;12205;50.600;4.608;2022-12-18T03:32:01;26.65;;;6.90;;
23990;SDS011;12205;50.600;4.608;2022-12-18T03:34:34;23.65;;;6.00;;
23990;SDS011;12205;50.600;4.608;2022-12-18T03:37:07;32.17;;;7.13;;
23990;SDS011;12205;50.600;4.608;2022-12-18T03:39:35;28.58;;;6.47;;
23990;SDS011;12205;50.600;4.608;2022-12-18T03:42:04;20.08;;;6.13;;
23990;SDS011;12205;50.600;4.608;2022-12-18T03:44:49;20.90;;;5.82;;
23990;SDS011;12205;50.600;4.608;2022-12-18T03:47:29;20.23;;;5.43;;
23990;SDS011;12205;50.600;4.608;2022-12-18T03:50:08;21.42;;;5.50;;
23990;SDS011;12205;50.600;4.608;2022-12-18T03:52:47;24.70;;;5.63;;
23990;SDS011;12205;50.600;4.608;2022-12-18T03:55:21;27.00;;;7.50;;
23990;SDS011;12205;50.600;4.608;2022-12-18T03:57:58;21.13;;;5.35;;
23990;SDS011;12205;50.600;4.608;2022-12-18T04:00:40;28.95;;;8.93;;
23990;SDS011;12205;50.600;4.608;2022-12-18T04:03:10;25.10;;;6.70;;
23990;SDS011;12205;50.600;4.608;2022-12-18T04:05:45;19.63;;;5.32;;
23990;SDS011;12205;50.600;4.608;2022-12-18T04:08:17;17.95;;;5.20;;
23990;SDS011;12205;50.600;4.608;2022-12-18T04:10:55;19.63;;;5.10;;
23990;SDS011;12205;50.600;4.608;2022-12-18T04:13:24;21.27;;;5.65;;
23990;SDS011;12205;50.600;4.608;2022-12-18T04:15:57;23.20;;;6.10;;
23990;SDS011;12205;50.600;4.608;2022-12-18T04:18:26;16.40;;;4.47;;
23990;SDS011;12205;50.600;4.608;2022-12-18T04:20:54;23.15;;;6.22;;
23990;SDS011;12205;50.600;4.608;2022-12-18T04:23:21;14.55;;;4.35;;
23990;SDS011;12205;50.600;4.608;2022-12-18T04:25:51;15.77;;;5.00;;
23990;SDS011;12205;50.600;4.608;2022-12-18T04:28:32;25.98;;;5.25;;
23990;SDS011;12205;50.600;4.608;2022-12-18T04:31:01;21.20;;;5.13;;
23990;SDS011;12205;50.600;4.608;2022-12-18T04:33:28;20.63;;;5.93;;
23990;SDS011;12205;50.600;4.608;2022-12-18T04:35:56;23.83;;;5.38;;
23990;SDS011;12205;50.600;4.608;2022-12-18T04:38:24;26.05;;;5.75;;
23990;SDS011;12205;50.600;4.608;2022-12-18T04:40:59;22.25;;;5.65;;
23990;SDS011;12205;50.600;4.608;2022-12-18T04:43:26;16.27;;;4.70;;
23990;SDS011;12205;50.600;4.608;2022-12-18T04:45:53;19.08;;;4.93;;
23990;SDS011;12205;50.600;4.608;2022-12-18T04:48:30;35.55;;;7.15;;
23990;SDS011;12205;50.600;4.608;2022-12-18T04:50:57;21.65;;;5.72;;
23990;SDS011;12205;50.600;4.608;2022-12-18T04:53:24;55.88;;;11.43;;
23990;SDS011;12205;50.600;4.608;2022-12-18T04:56:01;54.10;;;12.02;;
23990;SDS011;12205;50.600;4.608;2022-12-18T04:58:33;30.90;;;7.35;;
23990;SDS011;12205;50.600;4.608;2022-12-18T05:01:00;33.88;;;8.05;;
23990;SDS011;12205;50.600;4.608;2022-12-18T05:03:29;25.25;;;5.68;;
23990;SDS011;12205;50.600;4.608;2022-12-18T05:05:56;17.65;;;5.03;;
23990;SDS011;12205;50.600;4.608;2022-12-18T05:08:23;16.58;;;5.00;;
23990;SDS011;12205;50.600;4.608;2022-12-18T05:10:57;16.50;;;4.97;;
23990;SDS011;12205;50.600;4.608;2022-12-18T05:13:26;22.85;;;5.70;;
23990;SDS011;12205;50.600;4.608;2022-12-18T05:15:53;17.92;;;4.85;;
23990;SDS011;12205;50.600;4.608;2022-12-18T05:18:23;19.55;;;5.35;;
23990;SDS011;12205;50.600;4.608;2022-12-18T05:20:51;22.17;;;5.85;;
23990;SDS011;12205;50.600;4.608;2022-12-18T05:23:20;25.08;;;8.30;;
23990;SDS011;12205;50.600;4.608;2022-12-18T05:25:50;18.92;;;4.88;;
23990;SDS011;12205;50.600;4.608;2022-12-18T05:28:18;23.63;;;5.60;;
23990;SDS011;12205;50.600;4.608;2022-12-18T05:30:47;16.52;;;4.72;;
23990;SDS011;12205;50.600;4.608;2022-12-18T05:33:16;22.02;;;5.63;;
23990;SDS011;12205;50.600;4.608;2022-12-18T05:35:49;16.38;;;4.47;;
23990;SDS011;12205;50.600;4.608;2022-12-18T05:38:16;21.58;;;5.90;;
23990;SDS011;12205;50.600;4.608;2022-12-18T05:40:44;19.98;;;5.13;;
23990;SDS011;12205;50.600;4.608;2022-12-18T05:43:11;23.17;;;6.00;;
23990;SDS011;12205;50.600;4.608;2022-12-18T05:45:38;24.52;;;6.07;;
23990;SDS011;12205;50.600;4.608;2022-12-18T05:48:07;20.58;;;5.53;;
23990;SDS011;12205;50.600;4.608;2022-12-18T05:50:35;26.35;;;8.32;;
23990;SDS011;12205;50.600;4.608;2022-12-18T05:53:05;25.35;;;5.93;;
23990;SDS011;12205;50.600;4.608;2022-12-18T05:55:33;20.05;;;5.47;;
23990;SDS011;12205;50.600;4.608;2022-12-18T05:58:00;22.67;;;5.63;;
23990;SDS011;12205;50.600;4.608;2022-12-18T06:00:28;24.60;;;5.85;;
23990;SDS011;12205;50.600;4.608;2022-12-18T06:02:57;17.73;;;5.30;;
23990;SDS011;12205;50.600;4.608;2022-12-18T06:05:24;22.40;;;5.90;;
23990;SDS011;12205;50.600;4.608;2022-12-18T06:07:51;25.27;;;6.32;;
23990;SDS011;12205;50.600;4.608;2022-12-18T06:10:20;20.20;;;5.28;;
23990;SDS011;12205;50.600;4.608;2022-12-18T06:12:48;26.75;;;8.13;;
23990;SDS011;12205;50.600;4.608;2022-12-18T06:15:15;17.35;;;3.67;;
23990;SDS011;12205;50.600;4.608;2022-12-18T06:17:42;15.68;;;4.43;;
23990;SDS011;12205;50.600;4.608;2022-12-18T06:20:09;10.25;;;3.53;;
23990;SDS011;12205;50.600;4.608;2022-12-18T06:22:36;20.27;;;5.63;;
23990;SDS011;12205;50.600;4.608;2022-12-18T06:25:04;20.13;;;5.07;;
23990;SDS011;12205;50.600;4.608;2022-12-18T06:27:34;17.42;;;4.90;;
23990;SDS011;12205;50.600;4.608;2022-12-18T06:30:01;18.55;;;5.72;;
23990;SDS011;12205;50.600;4.608;2022-12-18T06:32:29;37.72;;;7.65;;
23990;SDS011;12205;50.600;4.608;2022-12-18T06:34:56;31.20;;;7.90;;
23990;SDS011;12205;50.600;4.608;2022-12-18T06:37:23;35.13;;;8.07;;
23990;SDS011;12205;50.600;4.608;2022-12-18T06:39:51;41.25;;;8.60;;
23990;SDS011;12205;50.600;4.608;2022-12-18T06:42:18;37.08;;;8.65;;
23990;SDS011;12205;50.600;4.608;2022-12-18T06:44:47;34.55;;;7.60;;
23990;SDS011;12205;50.600;4.608;2022-12-18T06:47:14;43.17;;;8.27;;
23990;SDS011;12205;50.600;4.608;2022-12-18T06:49:41;34.15;;;7.45;;
23990;SDS011;12205;50.600;4.608;2022-12-18T06:52:09;23.42;;;6.00;;
23990;SDS011;12205;50.600;4.608;2022-12-18T06:54:36;26.10;;;6.22;;
23990;SDS011;12205;50.600;4.608;2022-12-18T06:57:03;22.33;;;6.13;;
23990;SDS011;12205;50.600;4.608;2022-12-18T06:59:30;27.08;;;6.38;;
23990;SDS011;12205;50.600;4.608;2022-12-18T07:01:59;21.77;;;6.50;;
23990;SDS011;12205;50.600;4.608;2022-12-18T07:04:27;24.45;;;5.97;;
23990;SDS011;12205;50.600;4.608;2022-12-18T07:06:55;29.58;;;7.40;;
23990;SDS011;12205;50.600;4.608;2022-12-18T07:09:22;21.77;;;5.32;;
23990;SDS011;12205;50.600;4.608;2022-12-18T07:11:49;20.33;;;5.25;;
23990;SDS011;12205;50.600;4.608;2022-12-18T07:14:17;18.67;;;5.50;;
23990;SDS011;12205;50.600;4.608;2022-12-18T07:16:44;18.42;;;5.32;;
23990;SDS011;12205;50.600;4.608;2022-12-18T07:19:12;18.55;;;4.80;;
23990;SDS011;12205;50.600;4.608;2022-12-18T07:21:39;21.60;;;4.88;;
23990;SDS011;12205;50.600;4.608;2022-12-18T07:24:07;30.17;;;9.02;;
23990;SDS011;12205;50.600;4.608;2022-12-18T07:26:34;22.27;;;5.90;;
23990;SDS011;12205;50.600;4.608;2022-12-18T07:29:01;36.45;;;6.80;;
23990;SDS011;12205;50.600;4.608;2022-12-18T07:31:28;24.73;;;6.35;;
23990;SDS011;12205;50.600;4.608;2022-12-18T07:33:55;20.67;;;6.10;;
23990;SDS011;12205;50.600;4.608;2022-12-18T07:36:24;24.00;;;5.72;;
23990;SDS011;12205;50.600;4.608;2022-12-18T07:38:51;23.25;;;5.72;;
23990;SDS011;12205;50.600;4.608;2022-12-18T07:41:19;23.00;;;6.22;;
23990;SDS011;12205;50.600;4.608;2022-12-18T07:43:47;20.80;;;5.82;;
23990;SDS011;12205;50.600;4.608;2022-12-18T07:46:15;24.25;;;7.22;;
23990;SDS011;12205;50.600;4.608;2022-12-18T07:48:42;18.63;;;5.65;;
23990;SDS011;12205;50.600;4.608;2022-12-18T07:51:12;15.50;;;4.38;;
23990;SDS011;12205;50.600;4.608;2022-12-18T07:53:41;17.73;;;4.90;;
23990;SDS011;12205;50.600;4.608;2022-12-18T07:56:09;17.77;;;4.97;;
23990;SDS011;12205;50.600;4.608;2022-12-18T07:58:38;15.70;;;4.25;;
23990;SDS011;12205;50.600;4.608;2022-12-18T08:01:06;22.17;;;5.80;;
23990;SDS011;12205;50.600;4.608;2022-12-18T08:03:36;10.43;;;3.30;;
23990;SDS011;12205;50.600;4.608;2022-12-18T08:06:05;17.83;;;4.72;;
23990;SDS011;12205;50.600;4.608;2022-12-18T08:08:35;22.42;;;6.25;;
23990;SDS011;12205;50.600;4.608;2022-12-18T08:11:04;19.95;;;5.03;;
23990;SDS011;12205;50.600;4.608;2022-12-18T08:13:31;22.75;;;6.85;;
23990;SDS011;12205;50.600;4.608;2022-12-18T08:15:59;18.50;;;5.18;;
23990;SDS011;12205;50.600;4.608;2022-12-18T08:18:29;22.63;;;6.70;;
23990;SDS011;12205;50.600;4.608;2022-12-18T08:21:07;20.83;;;5.70;;
23990;SDS011;12205;50.600;4.608;2022-12-18T08:23:35;21.45;;;5.43;;
23990;SDS011;12205;50.600;4.608;2022-12-18T08:26:05;23.00;;;6.97;;
23990;SDS011;12205;50.600;4.608;2022-12-18T08:28:33;24.90;;;6.72;;
23990;SDS011;12205;50.600;4.608;2022-12-18T08:31:00;20.85;;;6.18;;
23990;SDS011;12205;50.600;4.608;2022-12-18T08:33:28;25.85;;;6.70;;
23990;SDS011;12205;50.600;4.608;2022-12-18T08:35:55;22.48;;;7.22;;
23990;SDS011;12205;50.600;4.608;2022-12-18T08:38:22;20.75;;;5.93;;
23990;SDS011;12205;50.600;4.608;2022-12-18T08:40:49;20.70;;;5.75;;
23990;SDS011;12205;50.600;4.608;2022-12-18T08:43:25;22.85;;;5.75;;
23990;SDS011;12205;50.600;4.608;2022-12-18T08:46:10;21.10;;;6.07;;
23990;SDS011;12205;50.600;4.608;2022-12-18T08:48:37;22.65;;;6.00;;
23990;SDS011;12205;50.600;4.608;2022-12-18T08:51:04;16.35;;;4.95;;
23990;SDS011;12205;50.600;4.608;2022-12-18T08:53:32;22.08;;;5.70;;
23990;SDS011;12205;50.600;4.608;2022-12-18T08:55:59;20.00;;;5.57;;
23990;SDS011;12205;50.600;4.608;2022-12-18T08:58:27;15.77;;;5.03;;
23990;SDS011;12205;50.600;4.608;2022-12-18T09:00:59;19.92;;;6.10;;
23990;SDS011;12205;50.600;4.608;2022-12-18T09:03:27;21.17;;;6.32;;
23990;SDS011;12205;50.600;4.608;2022-12-18T09:05:54;24.60;;;6.13;;
23990;SDS011;12205;50.600;4.608;2022-12-18T09:08:22;18.30;;;5.28;;
23990;SDS011;12205;50.600;4.608;2022-12-18T09:10:49;21.20;;;5.90;;
23990;SDS011;12205;50.600;4.608;2022-12-18T09:13:17;20.73;;;5.95;;
23990;SDS011;12205;50.600;4.608;2022-12-18T09:15:46;22.17;;;6.78;;
23990;SDS011;12205;50.600;4.608;2022-12-18T09:18:17;24.50;;;6.32;;
23990;SDS011;12205;50.600;4.608;2022-12-18T09:20:45;23.63;;;6.78;;
23990;SDS011;12205;50.600;4.608;2022-12-18T09:23:12;19.45;;;5.53;;
23990;SDS011;12205;50.600;4.608;2022-12-18T09:25:40;19.15;;;5.18;;
23990;SDS011;12205;50.600;4.608;2022-12-18T09:28:12;18.00;;;5.53;;
23990;SDS011;12205;50.600;4.608;2022-12-18T09:30:43;23.13;;;7.75;;
23990;SDS011;12205;50.600;4.608;2022-12-18T09:33:13;20.42;;;5.70;;
23990;SDS011;12205;50.600;4.608;2022-12-18T09:35:42;22.60;;;5.65;;
23990;SDS011;12205;50.600;4.608;2022-12-18T09:38:11;22.45;;;6.00;;
23990;SDS011;12205;50.600;4.608;2022-12-18T09:40:41;17.88;;;5.65;;
23990;SDS011;12205;50.600;4.608;2022-12-18T09:43:13;19.38;;;5.47;;
23990;SDS011;12205;50.600;4.608;2022-12-18T09:45:46;20.48;;;6.22;;
23990;SDS011;12205;50.600;4.608;2022-12-18T09:48:21;16.67;;;5.03;;
23990;SDS011;12205;50.600;4.608;2022-12-18T09:50:55;20.52;;;5.88;;
23990;SDS011;12205;50.600;4.608;2022-12-18T09:53:30;21.00;;;5.72;;
23990;SDS011;12205;50.600;4.608;2022-12-18T09:56:03;19.08;;;6.13;;
23990;SDS011;12205;50.600;4.608;2022-12-18T09:58:33;21.67;;;6.43;;
23990;SDS011;12205;50.600;4.608;2022-12-18T10:01:11;18.38;;;5.40;;
23990;SDS011;12205;50.600;4.608;2022-12-18T10:03:44;28.98;;;8.95;;
23990;SDS011;12205;50.600;4.608;2022-12-18T10:06:12;21.58;;;5.70;;
23990;SDS011;12205;50.600;4.608;2022-12-18T10:08:49;24.27;;;6.50;;
23990;SDS011;12205;50.600;4.608;2022-12-18T10:11:32;23.48;;;6.07;;
23990;SDS011;12205;50.600;4.608;2022-12-18T10:14:10;17.60;;;4.68;;
23990;SDS011;12205;50.600;4.608;2022-12-18T10:16:53;29.02;;;6.72;;
23990;SDS011;12205;50.600;4.608;2022-12-18T10:19:38;18.13;;;5.20;;
23990;SDS011;12205;50.600;4.608;2022-12-18T10:25:15;30.23;;;6.55;;
23990;SDS011;12205;50.600;4.608;2022-12-18T10:27:51;23.67;;;6.68;;
23990;SDS011;12205;50.600;4.608;2022-12-18T10:30:24;22.17;;;6.15;;
23990;SDS011;12205;50.600;4.608;2022-12-18T10:32:53;24.20;;;6.43;;
23990;SDS011;12205;50.600;4.608;2022-12-18T10:35:22;33.00;;;7.13;;
23990;SDS011;12205;50.600;4.608;2022-12-18T10:37:59;24.48;;;6.13;;
23990;SDS011;12205;50.600;4.608;2022-12-18T10:40:32;29.98;;;7.05;;
23990;SDS011;12205;50.600;4.608;2022-12-18T10:43:16;31.05;;;6.90;;
23990;SDS011;12205;50.600;4.608;2022-12-18T10:45:59;29.13;;;6.75;;
23990;SDS011;12205;50.600;4.608;2022-12-18T10:48:47;31.85;;;6.63;;
23990;SDS011;12205;50.600;4.608;2022-12-18T10:51:20;30.65;;;6.57;;
23990;SDS011;12205;50.600;4.608;2022-12-18T10:53:52;21.85;;;6.07;;
23990;SDS011;12205;50.600;4.608;2022-12-18T10:56:23;20.15;;;5.68;;
23990;SDS011;12205;50.600;4.608;2022-12-18T10:58:58;23.50;;;6.72;;
23990;SDS011;12205;50.600;4.608;2022-12-18T11:01:31;21.35;;;5.60;;
23990;SDS011;12205;50.600;4.608;2022-12-18T11:04:19;25.58;;;7.88;;
23990;SDS011;12205;50.600;4.608;2022-12-18T11:06:57;17.58;;;5.40;;
23990;SDS011;12205;50.600;4.608;2022-12-18T11:09:27;18.70;;;5.38;;
23990;SDS011;12205;50.600;4.608;2022-12-18T11:11:57;21.73;;;6.13;;
23990;SDS011;12205;50.600;4.608;2022-12-18T11:14:26;26.20;;;6.35;;
23990;SDS011;12205;50.600;4.608;2022-12-18T11:16:57;26.27;;;6.47;;
23990;SDS011;12205;50.600;4.608;2022-12-18T11:19:32;21.77;;;5.95;;
23990;SDS011;12205;50.600;4.608;2022-12-18T11:22:02;26.15;;;6.55;;
23990;SDS011;12205;50.600;4.608;2022-12-18T11:24:51;22.95;;;6.10;;
23990;SDS011;12205;50.600;4.608;2022-12-18T11:27:21;19.73;;;5.47;;
23990;SDS011;12205;50.600;4.608;2022-12-18T11:29:49;28.25;;;7.93;;
23990;SDS011;12205;50.600;4.608;2022-12-18T11:32:23;20.05;;;5.85;;
23990;SDS011;12205;50.600;4.608;2022-12-18T11:35:12;17.00;;;5.47;;
23990;SDS011;12205;50.600;4.608;2022-12-18T11:37:47;23.98;;;7.13;;
23990;SDS011;12205;50.600;4.608;2022-12-18T11:40:25;24.48;;;7.00;;
23990;SDS011;12205;50.600;4.608;2022-12-18T11:43:02;23.38;;;7.07;;
23990;SDS011;12205;50.600;4.608;2022-12-18T11:45:40;32.13;;;8.60;;
23990;SDS011;12205;50.600;4.608;2022-12-18T11:48:14;24.92;;;8.07;;
23990;SDS011;12205;50.600;4.608;2022-12-18T11:50:52;23.75;;;6.20;;
23990;SDS011;12205;50.600;4.608;2022-12-18T11:53:21;25.38;;;6.00;;
23990;SDS011;12205;50.600;4.608;2022-12-18T11:56:02;23.42;;;6.28;;
23990;SDS011;12205;50.600;4.608;2022-12-18T11:58:54;22.10;;;6.60;;
23990;SDS011;12205;50.600;4.608;2022-12-18T12:01:39;24.75;;;6.45;;
23990;SDS011;12205;50.600;4.608;2022-12-18T12:04:21;25.33;;;7.18;;
23990;SDS011;12205;50.600;4.608;2022-12-18T12:07:19;25.95;;;7.38;;
23990;SDS011;12205;50.600;4.608;2022-12-18T12:10:02;26.23;;;6.95;;
23990;SDS011;12205;50.600;4.608;2022-12-18T12:12:50;27.90;;;7.03;;
23990;SDS011;12205;50.600;4.608;2022-12-18T12:18:16;28.75;;;7.43;;
23990;SDS011;12205;50.600;4.608;2022-12-18T12:20:58;31.98;;;9.43;;
23990;SDS011;12205;50.600;4.608;2022-12-18T12:23:37;26.13;;;7.05;;
23990;SDS011;12205;50.600;4.608;2022-12-18T12:26:19;39.38;;;9.18;;
23990;SDS011;12205;50.600;4.608;2022-12-18T12:29:00;25.00;;;7.15;;
23990;SDS011;12205;50.600;4.608;2022-12-18T12:31:57;21.83;;;6.15;;
23990;SDS011;12205;50.600;4.608;2022-12-18T12:34:39;25.50;;;6.90;;
23990;SDS011;12205;50.600;4.608;2022-12-18T12:37:25;28.38;;;7.13;;
23990;SDS011;12205;50.600;4.608;2022-12-18T12:40:05;26.33;;;7.07;;
23990;SDS011;12205;50.600;4.608;2022-12-18T12:42:33;26.73;;;6.50;;
23990;SDS011;12205;50.600;4.608;2022-12-18T12:45:26;33.10;;;7.70;;
23990;SDS011;12205;50.600;4.608;2022-12-18T12:48:00;32.03;;;7.57;;
23990;SDS011;12205;50.600;4.608;2022-12-18T12:50:30;24.95;;;7.10;;
23990;SDS011;12205;50.600;4.608;2022-12-18T12:53:01;25.20;;;6.85;;
23990;SDS011;12205;50.600;4.608;2022-12-18T12:55:36;30.50;;;7.45;;
23990;SDS011;12205;50.600;4.608;2022-12-18T12:58:08;24.60;;;7.18;;
23990;SDS011;12205;50.600;4.608;2022-12-18T13:00:49;28.33;;;7.38;;
23990;SDS011;12205;50.600;4.608;2022-12-18T13:03:34;32.00;;;7.90;;
23990;SDS011;12205;50.600;4.608;2022-12-18T13:06:19;22.48;;;6.22;;
23990;SDS011;12205;50.600;4.608;2022-12-18T13:09:01;23.48;;;6.35;;
23990;SDS011;12205;50.600;4.608;2022-12-18T13:11:34;25.85;;;7.13;;
23990;SDS011;12205;50.600;4.608;2022-12-18T13:14:24;27.30;;;7.15;;
23990;SDS011;12205;50.600;4.608;2022-12-18T13:17:14;30.30;;;7.35;;
23990;SDS011;12205;50.600;4.608;2022-12-18T13:20:03;26.73;;;7.57;;
23990;SDS011;12205;50.600;4.608;2022-12-18T13:22:35;29.30;;;7.78;;
23990;SDS011;12205;50.600;4.608;2022-12-18T13:28:00;25.27;;;6.72;;
23990;SDS011;12205;50.600;4.608;2022-12-18T13:30:47;31.73;;;7.88;;
23990;SDS011;12205;50.600;4.608;2022-12-18T13:36:15;34.97;;;8.75;;
23990;SDS011;12205;50.600;4.608;2022-12-18T13:39:10;31.00;;;7.70;;
23990;SDS011;12205;50.600;4.608;2022-12-18T13:41:52;35.10;;;8.82;;
23990;SDS011;12205;50.600;4.608;2022-12-18T13:45:01;30.17;;;8.15;;
23990;SDS011;12205;50.600;4.608;2022-12-18T13:48:11;34.25;;;8.68;;
23990;SDS011;12205;50.600;4.608;2022-12-18T13:50:48;27.00;;;7.50;;
23990;SDS011;12205;50.600;4.608;2022-12-18T13:53:21;24.58;;;7.15;;
23990;SDS011;12205;50.600;4.608;2022-12-18T13:55:53;33.50;;;8.32;;
23990;SDS011;12205;50.600;4.608;2022-12-18T13:58:21;34.22;;;8.63;;
23990;SDS011;12205;50.600;4.608;2022-12-18T14:00:49;30.73;;;8.32;;
23990;SDS011;12205;50.600;4.608;2022-12-18T14:03:21;31.58;;;8.85;;
23990;SDS011;12205;50.600;4.608;2022-12-18T14:05:55;35.05;;;10.07;;
23990;SDS011;12205;50.600;4.608;2022-12-18T14:08:29;31.02;;;8.82;;
23990;SDS011;12205;50.600;4.608;2022-12-18T14:11:04;29.50;;;8.65;;
23990;SDS011;12205;50.600;4.608;2022-12-18T14:13:33;32.78;;;8.82;;
23990;SDS011;12205;50.600;4.608;2022-12-18T14:16:06;31.75;;;8.32;;
23990;SDS011;12205;50.600;4.608;2022-12-18T14:18:38;29.25;;;8.82;;
23990;SDS011;12205;50.600;4.608;2022-12-18T14:21:18;30.98;;;7.80;;
23990;SDS011;12205;50.600;4.608;2022-12-18T14:23:49;27.15;;;7.78;;
23990;SDS011;12205;50.600;4.608;2022-12-18T14:28:58;30.42;;;8.43;;
23990;SDS011;12205;50.600;4.608;2022-12-18T14:31:45;28.42;;;7.97;;
23990;SDS011;12205;50.600;4.608;2022-12-18T14:34:14;31.23;;;8.07;;
23990;SDS011;12205;50.600;4.608;2022-12-18T14:36:44;35.38;;;8.63;;
23990;SDS011;12205;50.600;4.608;2022-12-18T14:39:21;34.47;;;8.63;;
23990;SDS011;12205;50.600;4.608;2022-12-18T14:41:49;33.55;;;8.45;;
23990;SDS011;12205;50.600;4.608;2022-12-18T14:44:16;35.95;;;10.95;;
23990;SDS011;12205;50.600;4.608;2022-12-18T14:46:44;28.75;;;8.55;;
23990;SDS011;12205;50.600;4.608;2022-12-18T14:49:17;27.47;;;7.97;;
23990;SDS011;12205;50.600;4.608;2022-12-18T14:51:51;31.20;;;7.68;;
23990;SDS011;12205;50.600;4.608;2022-12-18T14:54:21;33.25;;;8.48;;
23990;SDS011;12205;50.600;4.608;2022-12-18T14:56:51;35.38;;;8.23;;
23990;SDS011;12205;50.600;4.608;2022-12-18T14:59:25;28.95;;;7.97;;
23990;SDS011;12205;50.600;4.608;2022-12-18T15:01:58;31.98;;;8.95;;
23990;SDS011;12205;50.600;4.608;2022-12-18T15:04:35;29.98;;;8.50;;
23990;SDS011;12205;50.600;4.608;2022-12-18T15:07:06;28.65;;;8.18;;
23990;SDS011;12205;50.600;4.608;2022-12-18T15:09:40;32.70;;;8.23;;
23990;SDS011;12205;50.600;4.608;2022-12-18T15:12:33;29.50;;;8.20;;
23990;SDS011;12205;50.600;4.608;2022-12-18T15:15:03;30.83;;;7.57;;
23990;SDS011;12205;50.600;4.608;2022-12-18T15:17:32;36.50;;;9.30;;
23990;SDS011;12205;50.600;4.608;2022-12-18T15:20:00;29.77;;;8.15;;